Terminal Aerodrome Forecast
Issued by NWS Cleveland, OH

Home | Current Version | Previous Version | Text Only | Print | Product List | Glossary Off
Versions: 1 2 3 4 5 6 7 8 9 10 11 12 13 14 15 16 17 18 19 20 21 22 23

515
FTUS41 KCLE 261741
TAFERI
TAF
KERI 261741Z 2618/2718 15012G22KT P6SM OVC100
     FM262000 15012KT P6SM OVC045
      TEMPO 2622/2624 5SM -SHRA BR OVC035
     FM270000 16012KT 5SM -SHRA BR OVC015
     FM270400 16008KT 3SM SHRA BR OVC008
     FM270700 18008KT 4SM BR OVC006
     FM271500 23006KT P6SM OVC015=

USA.gov is the U.S. government's official web portal to all federal, state and local government web resources and services.